Bass River, Massachusetts
Current Conditions -  °F | °C
As of 5:56 PM on Tuesday 25 Nov 2014 (Local Time) from KHYA Reporting Station
Few Clouds Few Clouds  
Wind Chill: 53°   Ceiling: Unl
Heat Index: 53°   Visibility: 10mi
Dew Point: 40°   Wind: 9mph
Humidity: 61%   Direction: 220°SW
Pressure: 29.98"   Gusts: NA
Location:  41.6739°N, 70.1961°W
Report Text: KHYA 252256Z 22008KT 10SM FEW120 12/04 A2998 RMK AO2 SLP153 T01170044
Loading
Personal Weather Stations






























Interactive Weather Map New forecast layout! Learn more

10-Day Weather Forecast

Advertisements
Track Severe Weather on mobile